createdAt,value
2022-12-12T00:01:32.899Z,108.88
2022-12-12T00:04:00.949Z,110.88
2022-12-12T00:06:29.082Z,110.88
2022-12-12T00:08:56.229Z,111.07
2022-12-12T00:11:25.270Z,110.53
2022-12-12T00:13:54.250Z,111.07
2022-12-12T00:16:23.367Z,111.65
2022-12-12T00:18:51.062Z,109.70
2022-12-12T00:21:23.505Z,110.78
2022-12-12T00:23:51.326Z,108.85
2022-12-12T00:26:32.250Z,109.22
2022-12-12T00:29:01.840Z,108.93
2022-12-12T00:31:29.721Z,110.35
2022-12-12T00:33:57.599Z,110.38
2022-12-12T00:36:30.129Z,111.30
2022-12-12T00:38:58.388Z,111.30
2022-12-12T00:41:26.200Z,110.93
2022-12-12T00:43:53.402Z,110.65
2022-12-12T00:46:26.076Z,111.28
2022-12-12T00:48:59.181Z,109.70
2022-12-12T00:51:29.185Z,109.93
2022-12-12T00:53:58.730Z,109.25
2022-12-12T00:56:29.306Z,110.82
2022-12-12T00:58:56.746Z,111.10
2022-12-12T01:01:28.911Z,110.68
2022-12-12T01:03:56.846Z,111.40
2022-12-12T01:06:24.342Z,111.30
2022-12-12T01:08:52.447Z,109.40
2022-12-12T01:11:20.713Z,110.77
2022-12-12T01:13:51.379Z,110.22
2022-12-12T01:16:19.270Z,111.57
2022-12-12T01:18:46.704Z,110.78
2022-12-12T01:21:18.204Z,111.25
2022-12-12T01:23:45.819Z,110.15
2022-12-12T01:26:18.431Z,110.53
2022-12-12T01:28:46.543Z,110.57
2022-12-12T01:31:14.369Z,109.63
2022-12-12T01:33:46.130Z,111.38
2022-12-12T01:36:22.122Z,107.85
2022-12-12T01:38:53.198Z,109.82
2022-12-12T01:41:20.924Z,111.45
2022-12-12T01:43:48.312Z,111.20
2022-12-12T01:46:39.080Z,110.97
2022-12-12T01:49:20.528Z,111.43
2022-12-12T01:51:52.796Z,110.28
2022-12-12T01:54:31.647Z,110.03
2022-12-12T01:57:05.513Z,111.15
2022-12-12T01:59:34.968Z,110.80
2022-12-12T02:02:02.387Z,111.15
2022-12-12T02:04:29.953Z,110.47
2022-12-12T02:06:57.676Z,110.07
2022-12-12T02:09:25.959Z,111.15
2022-12-12T02:11:58.051Z,109.87
2022-12-12T02:14:35.268Z,110.70
2022-12-12T02:17:55.669Z,110.13
2022-12-12T02:21:46.290Z,108.13
2022-12-12T02:24:51.451Z,110.60
2022-12-12T02:27:52.268Z,109.43
2022-12-12T02:30:45.397Z,111.07
2022-12-12T02:33:29.705Z,110.95
2022-12-12T02:36:27.457Z,109.68
2022-12-12T02:39:27.774Z,109.53
2022-12-12T02:42:04.746Z,110.57
2022-12-12T02:44:54.832Z,110.07
2022-12-12T02:47:31.030Z,108.90
2022-12-12T02:50:14.026Z,109.78
2022-12-12T02:52:43.898Z,110.85
2022-12-12T02:55:11.857Z,109.90
2022-12-12T02:57:41.893Z,110.97
2022-12-12T03:00:17.951Z,109.25
2022-12-12T03:03:28.522Z,109.78
2022-12-12T03:06:53.974Z,109.72
2022-12-12T03:10:01.946Z,109.38
2022-12-12T03:12:48.819Z,109.72
2022-12-12T03:15:32.750Z,111.00
2022-12-12T03:18:27.593Z,108.63
2022-12-12T03:21:19.246Z,108.35
2022-12-12T03:23:54.534Z,109.68
2022-12-12T03:26:47.451Z,110.18
2022-12-12T03:29:38.310Z,110.88
2022-12-12T03:32:23.399Z,110.88
2022-12-12T03:35:00.988Z,110.05
2022-12-12T03:37:52.467Z,110.72
2022-12-12T03:40:31.733Z,109.78
2022-12-12T03:43:33.952Z,110.32
2022-12-12T03:46:28.628Z,109.13
2022-12-12T03:49:13.842Z,110.47
2022-12-12T03:51:51.315Z,110.90
2022-12-12T03:54:29.667Z,109.18
2022-12-12T03:57:10.451Z,110.93
2022-12-12T03:59:54.256Z,110.28
2022-12-12T04:02:51.746Z,110.38
2022-12-12T04:05:28.332Z,109.72
2022-12-12T04:08:11.492Z,110.78
2022-12-12T04:11:09.839Z,110.88
2022-12-12T04:14:01.198Z,110.68
2022-12-12T04:16:40.520Z,110.07
2022-12-12T04:20:13.148Z,110.65
2022-12-12T04:23:18.079Z,110.18
2022-12-12T04:26:34.524Z,107.78
2022-12-12T04:29:18.998Z,108.57
2022-12-12T04:32:28.675Z,110.70
2022-12-12T04:35:04.025Z,110.70
2022-12-12T04:37:42.726Z,110.65
2022-12-12T04:40:22.240Z,110.70
2022-12-12T04:43:14.245Z,110.00
2022-12-12T04:45:53.349Z,110.88
2022-12-12T04:48:37.028Z,110.95
2022-12-12T04:51:10.177Z,110.93
2022-12-12T04:53:48.925Z,109.55
2022-12-12T04:56:27.520Z,110.18
2022-12-12T04:58:54.860Z,110.18
2022-12-12T05:02:04.267Z,109.72
2022-12-12T05:04:52.365Z,110.28
2022-12-12T05:07:41.213Z,109.05
2022-12-12T05:10:16.896Z,110.70
2022-12-12T05:12:50.188Z,110.68
2022-12-12T05:15:20.305Z,110.88
2022-12-12T05:17:59.165Z,109.70
2022-12-12T05:20:26.607Z,110.28
2022-12-12T05:22:53.565Z,110.18
2022-12-12T05:25:20.564Z,110.93
2022-12-12T05:27:48.685Z,109.65
2022-12-12T05:30:16.058Z,109.68
2022-12-12T05:32:43.015Z,109.78
2022-12-12T05:35:11.108Z,108.63
2022-12-12T05:37:38.816Z,110.43
2022-12-12T05:40:08.999Z,110.60
2022-12-12T05:42:36.022Z,110.78
2022-12-12T05:45:04.299Z,110.82
2022-12-12T05:47:31.293Z,110.88
2022-12-12T05:49:58.846Z,109.50
2022-12-12T05:52:26.289Z,109.68
2022-12-12T05:54:54.137Z,108.30
2022-12-12T05:57:21.613Z,110.50
2022-12-12T05:59:48.887Z,108.78
2022-12-12T06:02:17.086Z,109.78
2022-12-12T06:04:44.522Z,110.55
2022-12-12T06:07:11.626Z,108.03
2022-12-12T06:09:38.605Z,110.18
2022-12-12T06:12:06.134Z,110.15
2022-12-12T06:14:33.529Z,110.28
2022-12-12T06:17:01.061Z,110.28
2022-12-12T06:19:28.022Z,110.28
2022-12-12T06:21:56.181Z,107.70
2022-12-12T06:24:23.165Z,110.97
2022-12-12T06:26:50.859Z,109.03
2022-12-12T06:29:18.262Z,110.57
2022-12-12T06:31:45.306Z,109.63
2022-12-12T06:34:12.700Z,110.80
2022-12-12T06:36:39.847Z,110.70
2022-12-12T06:39:06.942Z,110.07
2022-12-12T06:41:34.799Z,110.35
2022-12-12T06:44:01.792Z,110.70
2022-12-12T06:46:29.897Z,110.18
2022-12-12T06:48:57.683Z,110.07
2022-12-12T06:51:31.703Z,108.18
2022-12-12T06:53:59.543Z,110.47
2022-12-12T06:56:27.779Z,110.18
2022-12-12T06:58:57.771Z,110.88
2022-12-12T07:01:25.593Z,108.90
2022-12-12T07:03:53.462Z,110.88
2022-12-12T07:06:23.327Z,110.55
2022-12-12T07:08:52.051Z,110.60
2022-12-12T07:11:26.251Z,110.18
2022-12-12T07:13:56.389Z,109.82
2022-12-12T07:16:24.238Z,110.15
2022-12-12T07:18:51.744Z,109.13
2022-12-12T07:21:21.139Z,110.55
2022-12-12T07:23:48.634Z,108.85
2022-12-12T07:26:24.471Z,110.60
2022-12-12T07:28:51.969Z,110.03
2022-12-12T07:31:25.393Z,110.28
2022-12-12T07:33:54.218Z,110.30
2022-12-12T07:36:21.677Z,110.47
2022-12-12T07:38:49.007Z,110.68
2022-12-12T07:41:20.224Z,110.63
2022-12-12T07:43:49.767Z,110.57
2022-12-12T07:46:22.623Z,110.53
2022-12-12T07:48:51.249Z,110.55
2022-12-12T07:51:19.372Z,110.25
2022-12-12T07:53:46.890Z,110.07
2022-12-12T07:56:16.325Z,110.47
2022-12-12T07:58:44.257Z,109.72
2022-12-12T08:01:19.992Z,110.25
2022-12-12T08:03:51.888Z,109.47
2022-12-12T08:06:22.181Z,109.68
2022-12-12T08:08:51.040Z,109.68
2022-12-12T08:11:22.916Z,108.82
2022-12-12T08:13:51.324Z,108.93
2022-12-12T08:16:26.953Z,108.32
2022-12-12T08:18:58.592Z,109.68
2022-12-12T08:21:27.678Z,110.57
2022-12-12T08:24:00.915Z,109.28
2022-12-12T08:26:29.702Z,110.05
2022-12-12T08:28:57.931Z,110.68
2022-12-12T08:31:25.965Z,110.05
2022-12-12T08:33:53.643Z,110.68
2022-12-12T08:36:31.490Z,110.40
2022-12-12T08:39:06.893Z,107.95
2022-12-12T08:41:40.748Z,108.30
2022-12-12T08:44:11.171Z,110.30
2022-12-12T08:46:39.328Z,110.18
2022-12-12T08:49:08.291Z,110.82
2022-12-12T08:51:38.946Z,110.40
2022-12-12T08:54:06.305Z,110.07
2022-12-12T08:56:34.176Z,110.17
2022-12-12T08:59:01.137Z,109.88
2022-12-12T09:03:48.345Z,110.27
2022-12-12T09:06:17.005Z,110.17
2022-12-12T09:08:45.510Z,109.73
2022-12-12T09:11:13.275Z,109.50
2022-12-12T09:13:41.248Z,110.37
2022-12-12T09:16:10.340Z,109.73
2022-12-12T09:18:43.224Z,111.10
2022-12-12T09:21:15.033Z,110.47
2022-12-12T09:23:42.429Z,110.77
2022-12-12T09:26:10.423Z,110.10
2022-12-12T09:28:37.765Z,110.37
2022-12-12T09:31:08.887Z,109.47
2022-12-12T09:33:36.582Z,111.23
2022-12-12T09:36:07.610Z,110.97
2022-12-12T09:38:35.718Z,110.87
2022-12-12T09:41:18.231Z,109.80
2022-12-12T09:44:05.098Z,110.40
2022-12-12T09:46:57.154Z,111.57
2022-12-12T09:49:51.415Z,109.57
2022-12-12T09:52:33.579Z,111.07
2022-12-12T09:55:33.655Z,109.77
2022-12-12T09:58:49.081Z,110.53
2022-12-12T10:01:52.941Z,110.70
2022-12-12T10:04:32.503Z,110.57
2022-12-12T10:07:41.959Z,110.20
2022-12-12T10:10:40.525Z,110.30
2022-12-12T10:13:21.665Z,112.07
2022-12-12T10:16:14.412Z,111.43
2022-12-12T10:18:52.303Z,113.00
2022-12-12T10:21:30.150Z,114.27
2022-12-12T10:24:25.771Z,113.67
2022-12-12T10:26:54.362Z,113.90
2022-12-12T10:29:25.292Z,114.80
2022-12-12T10:32:11.169Z,114.17
2022-12-12T10:35:16.913Z,114.47
2022-12-12T10:38:33.874Z,114.40
2022-12-12T10:41:57.476Z,114.67
2022-12-12T10:44:55.532Z,113.70
2022-12-12T10:47:22.928Z,112.60
2022-12-12T10:50:13.738Z,112.80
2022-12-12T10:52:41.129Z,113.37
2022-12-12T10:55:29.450Z,112.70
2022-12-12T10:58:05.326Z,112.40
2022-12-12T11:00:38.008Z,112.50
2022-12-12T11:04:02.073Z,112.20
2022-12-12T11:06:51.045Z,112.27
2022-12-12T11:09:27.577Z,112.57
2022-12-12T11:12:09.413Z,112.37
2022-12-12T11:14:46.832Z,112.10
2022-12-12T11:17:32.669Z,113.07
2022-12-12T11:20:07.332Z,112.27
2022-12-12T11:22:38.407Z,111.90
2022-12-12T11:25:05.809Z,112.37
2022-12-12T11:27:38.824Z,111.90
2022-12-12T11:30:35.933Z,111.40
2022-12-12T11:33:08.117Z,112.10
2022-12-12T11:35:45.533Z,112.00
2022-12-12T11:38:23.985Z,111.40
2022-12-12T11:41:11.003Z,110.90
2022-12-12T11:43:57.925Z,111.30
2022-12-12T11:46:30.177Z,110.97
2022-12-12T11:49:04.806Z,111.93
2022-12-12T11:51:35.173Z,111.87
2022-12-12T11:54:31.095Z,111.70
2022-12-12T11:57:17.734Z,110.67
2022-12-12T12:00:17.750Z,110.37
2022-12-12T12:03:24.291Z,112.13
2022-12-12T12:06:22.445Z,112.20
2022-12-12T12:09:22.481Z,111.60
2022-12-12T12:12:16.733Z,111.20
2022-12-12T12:15:03.533Z,111.97
2022-12-12T12:17:45.807Z,111.00
2022-12-12T12:20:32.494Z,111.67
2022-12-12T12:23:56.639Z,112.00
2022-12-12T12:27:31.799Z,112.07
2022-12-12T12:30:21.122Z,111.23
2022-12-12T12:33:36.006Z,111.70
2022-12-12T12:36:25.255Z,111.37
2022-12-12T12:39:39.941Z,112.03
2022-12-12T12:42:22.460Z,112.47
2022-12-12T12:45:25.776Z,112.57
2022-12-12T12:48:37.494Z,111.57
2022-12-12T12:51:36.839Z,114.50
2022-12-12T12:54:25.798Z,114.57
2022-12-12T12:57:03.616Z,114.70
2022-12-12T12:59:40.511Z,115.90
2022-12-12T13:02:51.153Z,115.97
2022-12-12T13:05:44.267Z,114.77
2022-12-12T13:08:25.641Z,114.37
2022-12-12T13:11:05.705Z,114.27
2022-12-12T13:13:40.382Z,114.03
2022-12-12T13:16:21.580Z,114.20
2022-12-12T13:19:10.132Z,114.47
2022-12-12T13:22:14.443Z,112.97
2022-12-12T13:25:33.451Z,114.17
2022-12-12T13:28:07.897Z,113.80
2022-12-12T13:30:58.415Z,112.37
2022-12-12T13:33:47.185Z,113.87
2022-12-12T13:36:29.566Z,113.20
2022-12-12T13:39:02.036Z,113.67
2022-12-12T13:42:10.223Z,113.57
2022-12-12T13:44:50.687Z,113.30
2022-12-12T13:47:23.721Z,112.87
2022-12-12T13:50:08.408Z,113.10
2022-12-12T13:52:42.146Z,111.87
2022-12-12T13:55:12.708Z,112.47
2022-12-12T13:58:05.852Z,111.20
2022-12-12T14:00:40.105Z,112.97
2022-12-12T14:03:10.098Z,113.00
2022-12-12T14:05:53.333Z,113.80
2022-12-12T14:08:35.824Z,113.97
2022-12-12T14:11:08.268Z,113.80
2022-12-12T14:13:45.217Z,114.43
2022-12-12T14:16:25.960Z,114.70
2022-12-12T14:19:23.796Z,114.50
2022-12-12T14:21:51.056Z,113.07
2022-12-12T14:24:33.350Z,114.20
2022-12-12T14:27:06.384Z,113.90
2022-12-12T14:29:43.442Z,114.20
2022-12-12T14:32:13.618Z,114.40
2022-12-12T14:35:47.449Z,114.17
2022-12-12T14:38:50.713Z,113.20
2022-12-12T14:41:34.347Z,114.00
2022-12-12T14:44:34.947Z,112.77
2022-12-12T14:47:07.637Z,112.80
2022-12-12T14:49:34.717Z,113.67
2022-12-12T14:52:02.361Z,113.20
2022-12-12T14:54:30.799Z,112.07
2022-12-12T14:56:59.518Z,112.10
2022-12-12T14:59:38.389Z,110.90
2022-12-12T15:02:33.173Z,111.67
2022-12-12T15:05:07.099Z,110.27
2022-12-12T15:07:38.538Z,112.43
2022-12-12T15:10:30.498Z,112.25
2022-12-12T15:12:57.639Z,113.22
2022-12-12T15:15:32.010Z,113.28
2022-12-12T15:18:01.567Z,113.00
2022-12-12T15:20:32.286Z,111.72
2022-12-12T15:23:04.786Z,113.18
2022-12-12T15:25:47.553Z,112.97
2022-12-12T15:28:21.900Z,112.88
2022-12-12T15:30:53.285Z,111.72
2022-12-12T15:33:28.488Z,112.90
2022-12-12T15:36:02.928Z,112.82
2022-12-12T15:38:32.256Z,113.07
2022-12-12T15:41:06.732Z,113.28
2022-12-12T15:43:38.933Z,112.85
2022-12-12T15:46:14.636Z,113.18
2022-12-12T15:48:49.640Z,112.03
2022-12-12T15:51:24.712Z,113.55
2022-12-12T15:53:55.222Z,113.03
2022-12-12T15:56:22.690Z,112.00
2022-12-12T15:59:16.140Z,112.63
2022-12-12T16:01:43.959Z,112.63
2022-12-12T16:04:11.252Z,112.93
2022-12-12T16:06:45.810Z,112.53
2022-12-12T16:09:20.307Z,112.22
2022-12-12T16:11:58.933Z,112.38
2022-12-12T16:14:42.834Z,112.13
2022-12-12T16:17:25.887Z,111.97
2022-12-12T16:20:13.766Z,111.95
2022-12-12T16:22:48.903Z,111.93
2022-12-12T16:25:29.268Z,112.13
2022-12-12T16:28:20.193Z,111.85
2022-12-12T16:30:57.143Z,110.68
2022-12-12T16:33:27.987Z,111.25
2022-12-12T16:35:56.997Z,110.65
2022-12-12T16:38:24.759Z,111.72
2022-12-12T16:40:55.413Z,111.10
2022-12-12T16:43:24.350Z,111.05
2022-12-12T16:45:54.563Z,111.00
2022-12-12T16:48:29.059Z,110.93
2022-12-12T16:51:04.449Z,111.18
2022-12-12T16:53:33.489Z,111.63
2022-12-12T16:56:02.346Z,110.43
2022-12-12T16:58:29.484Z,111.32
2022-12-12T17:00:58.118Z,110.93
2022-12-12T17:03:25.592Z,110.82
2022-12-12T17:05:52.997Z,110.82
2022-12-12T17:08:20.693Z,110.93
2022-12-12T17:10:52.159Z,110.15
2022-12-12T17:13:25.124Z,111.28
2022-12-12T17:15:55.574Z,110.63
2022-12-12T17:18:23.592Z,111.28
2022-12-12T17:20:50.684Z,110.63
2022-12-12T17:23:28.152Z,110.10
2022-12-12T17:26:02.582Z,111.03
2022-12-12T17:28:33.733Z,109.65
2022-12-12T17:31:01.956Z,110.85
2022-12-12T17:33:29.052Z,109.47
2022-12-12T17:36:07.272Z,109.78
2022-12-12T17:38:34.496Z,110.97
2022-12-12T17:41:08.896Z,110.63
2022-12-12T17:43:37.543Z,110.28
2022-12-12T17:46:14.299Z,110.43
2022-12-12T17:48:47.097Z,109.75
2022-12-12T17:51:21.833Z,110.47
2022-12-12T17:53:50.949Z,110.43
2022-12-12T17:56:22.806Z,109.53
2022-12-12T17:58:50.984Z,109.93
2022-12-12T18:01:20.708Z,110.05
2022-12-12T18:03:49.564Z,110.47
2022-12-12T18:06:20.439Z,109.60
2022-12-12T18:08:49.836Z,110.47
2022-12-12T18:11:24.388Z,110.07
2022-12-12T18:13:53.757Z,109.88
2022-12-12T18:16:24.311Z,108.93
2022-12-12T18:18:52.359Z,109.90
2022-12-12T18:21:59.184Z,109.72
2022-12-12T18:24:17.227Z,109.82
2022-12-12T18:26:44.848Z,108.90
2022-12-12T18:29:13.496Z,110.28
2022-12-12T18:31:41.096Z,109.32
2022-12-12T18:34:11.239Z,109.97
2022-12-12T18:36:39.888Z,109.80
2022-12-12T18:39:07.522Z,109.75
2022-12-12T18:41:36.703Z,109.68
2022-12-12T18:44:13.344Z,109.30
2022-12-12T18:46:43.519Z,109.65
2022-12-12T18:49:16.035Z,109.28
2022-12-12T18:51:46.470Z,109.32
2022-12-12T18:54:16.224Z,109.45
2022-12-12T18:56:46.626Z,110.18
2022-12-12T18:59:15.599Z,109.03
2022-12-12T19:01:42.891Z,109.88
2022-12-12T19:04:13.362Z,108.53
2022-12-12T19:06:43.136Z,109.22
2022-12-12T19:09:17.479Z,109.22
2022-12-12T19:11:47.209Z,109.05
2022-12-12T19:14:16.207Z,107.82
2022-12-12T19:16:44.948Z,108.53
2022-12-12T19:19:13.562Z,108.93
2022-12-12T19:21:42.244Z,108.88
2022-12-12T19:24:12.011Z,108.85
2022-12-12T19:26:43.725Z,108.53
2022-12-12T19:29:16.741Z,109.07
2022-12-12T19:31:45.248Z,108.53
2022-12-12T19:34:16.119Z,108.53
2022-12-12T19:36:43.499Z,108.97
2022-12-12T19:39:11.878Z,108.32
2022-12-12T19:41:40.283Z,108.40
2022-12-12T19:44:12.274Z,108.15
2022-12-12T19:46:42.525Z,108.32
2022-12-12T19:49:14.667Z,108.63
2022-12-12T19:51:45.227Z,107.60
2022-12-12T19:54:19.562Z,107.93
2022-12-12T19:56:47.416Z,107.93
2022-12-12T19:59:18.312Z,107.22
2022-12-12T20:01:46.269Z,107.82
2022-12-12T20:04:23.738Z,108.72
2022-12-12T20:06:52.104Z,108.50
2022-12-12T20:09:26.980Z,107.82
2022-12-12T20:11:56.375Z,107.95
2022-12-12T20:14:31.957Z,108.18
2022-12-12T20:17:00.389Z,107.53
2022-12-12T20:19:28.521Z,108.45
2022-12-12T20:22:01.679Z,107.78
2022-12-12T20:24:31.455Z,108.50
2022-12-12T20:27:03.486Z,108.43
2022-12-12T20:29:31.220Z,108.45
2022-12-12T20:31:59.904Z,108.50
2022-12-12T20:34:28.721Z,108.18
2022-12-12T20:36:56.082Z,107.95
2022-12-12T20:39:29.482Z,108.18
2022-12-12T20:41:57.405Z,107.88
2022-12-12T20:44:25.872Z,107.93
2022-12-12T20:46:55.970Z,107.72
2022-12-12T20:49:24.493Z,107.78
2022-12-12T20:51:55.965Z,106.82
2022-12-12T20:54:27.287Z,107.57
2022-12-12T20:56:55.973Z,108.15
2022-12-12T20:59:27.253Z,107.13
2022-12-12T21:01:55.023Z,106.18
2022-12-12T21:04:24.104Z,107.53
2022-12-12T21:06:52.105Z,107.82
2022-12-12T21:09:26.920Z,107.63
2022-12-12T21:11:57.679Z,107.43
2022-12-12T21:14:30.459Z,107.32
2022-12-12T21:16:57.927Z,107.03
2022-12-12T21:19:25.469Z,106.97
2022-12-12T21:21:53.687Z,106.93
2022-12-12T21:24:21.258Z,107.13
2022-12-12T21:26:48.843Z,107.03
2022-12-12T21:29:16.714Z,107.57
2022-12-12T21:31:50.884Z,107.03
2022-12-12T21:34:22.579Z,107.28
2022-12-12T21:36:56.349Z,107.57
2022-12-12T21:39:28.322Z,106.40
2022-12-12T21:41:56.390Z,107.07
2022-12-12T21:44:24.526Z,107.22
2022-12-12T21:46:52.224Z,106.78
2022-12-12T21:49:19.708Z,107.18
2022-12-12T21:51:47.750Z,106.32
2022-12-12T21:54:15.917Z,106.78
2022-12-12T21:56:44.181Z,106.35
2022-12-12T21:59:13.127Z,106.68
2022-12-12T22:01:41.546Z,106.68
2022-12-12T22:04:11.806Z,107.00
2022-12-12T22:06:40.050Z,106.43
2022-12-12T22:09:11.182Z,106.57
2022-12-12T22:11:49.356Z,106.82
2022-12-12T22:14:19.481Z,106.47
2022-12-12T22:16:46.829Z,106.18
2022-12-12T22:19:16.173Z,107.20
2022-12-12T22:21:47.603Z,106.88
2022-12-12T22:24:17.212Z,106.88
2022-12-12T22:26:48.759Z,106.78
2022-12-12T22:29:20.012Z,106.88
2022-12-12T22:31:49.894Z,106.68
2022-12-12T22:34:23.112Z,106.75
2022-12-12T22:36:51.818Z,106.03
2022-12-12T22:39:25.169Z,106.13
2022-12-12T22:41:55.073Z,105.82
2022-12-12T22:44:25.151Z,105.45
2022-12-12T22:46:55.056Z,106.68
2022-12-12T22:49:26.276Z,105.72
2022-12-12T22:51:56.604Z,105.88
2022-12-12T22:54:25.000Z,106.47
2022-12-12T22:56:52.495Z,106.47
2022-12-12T22:59:19.536Z,105.82
2022-12-12T23:01:46.498Z,106.18
2022-12-12T23:04:14.802Z,105.53
2022-12-12T23:06:43.559Z,106.07
2022-12-12T23:09:22.871Z,105.63
2022-12-12T23:11:50.343Z,104.95
2022-12-12T23:14:22.846Z,106.18
2022-12-12T23:16:51.715Z,105.68
2022-12-12T23:19:25.678Z,106.38
2022-12-12T23:21:53.140Z,106.40
2022-12-12T23:24:20.517Z,104.82
2022-12-12T23:26:51.705Z,105.68
2022-12-12T23:29:20.172Z,106.28
2022-12-12T23:31:47.997Z,105.88
2022-12-12T23:34:23.968Z,106.07
2022-12-12T23:36:56.583Z,105.97
2022-12-12T23:39:27.669Z,105.72
2022-12-12T23:41:55.669Z,105.88
2022-12-12T23:44:25.027Z,105.78
2022-12-12T23:46:52.895Z,105.97
2022-12-12T23:49:23.238Z,106.07
2022-12-12T23:51:57.193Z,105.88
2022-12-12T23:54:35.069Z,105.63
2022-12-12T23:57:03.333Z,104.65
2022-12-12T23:59:30.911Z,106.35
